createdAt,value
2022-09-29T00:00:18.109Z,3.60
2022-09-29T00:02:45.017Z,3.33
2022-09-29T00:05:11.800Z,3.20
2022-09-29T00:07:38.643Z,2.80
2022-09-29T00:10:05.794Z,3.10
2022-09-29T00:12:32.639Z,2.67
2022-09-29T00:14:59.410Z,2.43
2022-09-29T00:17:26.215Z,2.67
2022-09-29T00:19:52.968Z,2.00
2022-09-29T00:22:19.769Z,2.53
2022-09-29T00:24:47.307Z,2.20
2022-09-29T00:27:17.754Z,2.37
2022-09-29T00:29:44.686Z,2.57
2022-09-29T00:32:11.586Z,2.30
2022-09-29T00:34:38.362Z,1.97
2022-09-29T00:37:05.243Z,2.00
2022-09-29T00:39:32.074Z,2.20
2022-09-29T00:41:58.906Z,2.03
2022-09-29T00:44:44.558Z,2.10
2022-09-29T00:47:13.720Z,1.87
2022-09-29T00:49:42.577Z,2.40
2022-09-29T00:52:15.797Z,2.93
2022-09-29T00:54:47.763Z,1.93
2022-09-29T00:57:16.123Z,1.90
2022-09-29T00:59:46.374Z,2.20
2022-09-29T01:02:14.577Z,2.10
2022-09-29T01:04:41.434Z,1.83
2022-09-29T01:07:08.216Z,1.90
2022-09-29T01:09:37.636Z,2.40
2022-09-29T01:12:04.587Z,1.60
2022-09-29T01:14:32.048Z,1.70
2022-09-29T01:16:59.803Z,1.63
2022-09-29T01:19:45.310Z,1.33
2022-09-29T01:22:32.359Z,1.70
2022-09-29T01:25:02.147Z,1.77
2022-09-29T01:27:34.027Z,1.80
2022-09-29T01:30:03.883Z,1.77
2022-09-29T01:32:38.293Z,2.07
2022-09-29T01:35:26.234Z,1.90
2022-09-29T01:38:13.243Z,1.77
2022-09-29T01:41:07.393Z,1.57
2022-09-29T01:43:40.967Z,1.50
2022-09-29T01:46:16.837Z,1.70
2022-09-29T01:48:46.718Z,1.73
2022-09-29T01:51:19.232Z,1.60
2022-09-29T01:53:50.600Z,1.70
2022-09-29T01:56:25.941Z,1.10
2022-09-29T01:59:02.518Z,0.70
2022-09-29T02:01:35.800Z,1.00
2022-09-29T02:04:04.756Z,0.90
2022-09-29T02:06:36.686Z,0.77
2022-09-29T02:09:05.002Z,0.80
2022-09-29T02:11:32.155Z,1.00
2022-09-29T02:14:14.062Z,0.87
2022-09-29T02:16:51.781Z,0.83
2022-09-29T02:19:25.080Z,1.03
2022-09-29T02:21:55.464Z,0.83
2022-09-29T02:24:22.755Z,0.90
2022-09-29T02:26:49.571Z,0.80
2022-09-29T02:29:16.367Z,0.97
2022-09-29T02:31:43.268Z,0.97
2022-09-29T02:34:11.845Z,1.10
2022-09-29T02:37:00.150Z,0.80
2022-09-29T02:39:38.962Z,0.90
2022-09-29T02:42:17.853Z,1.03
2022-09-29T02:45:02.578Z,1.07
2022-09-29T02:47:38.142Z,1.00
2022-09-29T02:50:33.797Z,0.90
2022-09-29T02:53:23.205Z,1.00
2022-09-29T02:56:12.783Z,1.47
2022-09-29T02:58:51.942Z,1.33
2022-09-29T03:01:19.036Z,1.60
2022-09-29T03:03:45.874Z,1.20
2022-09-29T03:06:12.750Z,1.30
2022-09-29T03:08:39.902Z,1.23
2022-09-29T03:11:06.905Z,1.20
2022-09-29T03:13:33.666Z,1.20
2022-09-29T03:16:00.630Z,1.20
2022-09-29T03:18:27.802Z,1.37
2022-09-29T03:20:55.279Z,1.43
2022-09-29T03:23:22.147Z,1.40
2022-09-29T03:25:48.944Z,1.40
2022-09-29T03:28:16.586Z,1.70
2022-09-29T03:30:43.630Z,1.60
2022-09-29T03:33:10.791Z,1.70
2022-09-29T03:35:40.334Z,1.70
2022-09-29T03:38:09.261Z,1.90
2022-09-29T03:40:36.085Z,2.00
2022-09-29T03:43:02.959Z,1.77
2022-09-29T03:45:29.808Z,1.70
2022-09-29T03:47:56.602Z,2.10
2022-09-29T03:50:23.402Z,2.43
2022-09-29T03:52:50.144Z,1.90
2022-09-29T03:55:16.949Z,1.87
2022-09-29T03:57:43.798Z,1.70
2022-09-29T04:00:11.338Z,1.93
2022-09-29T04:02:38.128Z,2.13
2022-09-29T04:05:05.362Z,1.97
2022-09-29T04:07:32.276Z,2.10
2022-09-29T04:09:59.040Z,1.93
2022-09-29T04:12:25.834Z,2.00
2022-09-29T04:14:52.975Z,1.77
2022-09-29T04:17:20.453Z,1.60
2022-09-29T04:19:47.289Z,1.50
2022-09-29T04:22:18.390Z,1.47
2022-09-29T04:24:45.874Z,1.90
2022-09-29T04:27:12.740Z,1.60
2022-09-29T04:29:39.519Z,1.77
2022-09-29T04:32:06.649Z,1.97
2022-09-29T04:34:33.580Z,1.40
2022-09-29T04:37:00.626Z,1.80
2022-09-29T04:39:27.703Z,1.50
2022-09-29T04:41:54.562Z,1.70
2022-09-29T04:44:22.653Z,1.50
2022-09-29T04:46:52.226Z,1.87
2022-09-29T04:49:19.417Z,1.60
2022-09-29T04:51:46.606Z,2.00
2022-09-29T04:54:13.632Z,2.13
2022-09-29T04:56:40.422Z,1.83
2022-09-29T04:59:07.247Z,2.00
2022-09-29T05:01:34.325Z,1.97
2022-09-29T05:04:01.788Z,2.50
2022-09-29T05:06:28.683Z,2.67
2022-09-29T05:08:55.473Z,2.30
2022-09-29T05:11:22.242Z,2.20
2022-09-29T05:13:50.922Z,2.20
2022-09-29T05:16:17.752Z,2.77
2022-09-29T05:18:44.731Z,2.70
2022-09-29T05:21:28.862Z,2.47
2022-09-29T05:23:56.642Z,2.50
2022-09-29T05:26:23.509Z,3.10
2022-09-29T05:28:50.380Z,2.27
2022-09-29T05:31:19.080Z,3.13
2022-09-29T05:33:45.984Z,3.10
2022-09-29T05:36:13.287Z,2.90
2022-09-29T05:38:40.197Z,2.83
2022-09-29T05:41:11.100Z,3.13
2022-09-29T05:43:38.190Z,2.63
2022-09-29T05:46:06.016Z,2.80
2022-09-29T05:48:33.280Z,3.17
2022-09-29T05:51:00.487Z,3.13
2022-09-29T05:53:27.332Z,2.57
2022-09-29T05:55:54.223Z,3.20
2022-09-29T05:58:20.967Z,3.00
2022-09-29T06:00:47.774Z,3.40
2022-09-29T06:03:14.589Z,2.80
2022-09-29T06:05:41.495Z,3.30
2022-09-29T06:08:08.316Z,3.57
2022-09-29T06:10:35.262Z,3.17
2022-09-29T06:13:03.489Z,3.07
2022-09-29T06:15:30.370Z,3.67
2022-09-29T06:17:58.009Z,3.80
2022-09-29T06:20:25.068Z,3.53
2022-09-29T06:22:55.567Z,3.30
2022-09-29T06:25:22.954Z,3.93
2022-09-29T06:27:49.764Z,3.27
2022-09-29T06:30:16.690Z,3.37
2022-09-29T06:32:43.550Z,3.77
2022-09-29T06:35:29.057Z,3.17
2022-09-29T06:37:56.494Z,3.10
2022-09-29T06:40:23.857Z,3.50
2022-09-29T06:42:50.742Z,3.73
2022-09-29T06:45:21.977Z,3.13
2022-09-29T06:47:49.044Z,3.03
2022-09-29T06:50:18.082Z,3.23
2022-09-29T06:52:56.551Z,3.10
2022-09-29T06:55:25.525Z,2.97
2022-09-29T06:57:53.311Z,3.40
2022-09-29T07:00:20.136Z,3.40
2022-09-29T07:02:47.512Z,3.10
2022-09-29T07:05:14.413Z,3.30
2022-09-29T07:07:42.236Z,3.27
2022-09-29T07:10:09.403Z,3.40
2022-09-29T07:12:36.167Z,4.13
2022-09-29T07:15:04.502Z,3.80
2022-09-29T07:17:31.628Z,4.10
2022-09-29T07:19:58.892Z,3.97
2022-09-29T07:22:25.706Z,3.80
2022-09-29T07:24:53.692Z,3.53
2022-09-29T07:27:24.155Z,4.30
2022-09-29T07:30:02.471Z,4.17
2022-09-29T07:32:32.684Z,3.77
2022-09-29T07:35:02.334Z,3.97
2022-09-29T07:37:29.523Z,3.83
2022-09-29T07:39:57.373Z,4.00
2022-09-29T07:42:24.257Z,4.33
2022-09-29T07:44:52.459Z,4.57
2022-09-29T07:47:19.578Z,3.97
2022-09-29T07:49:46.411Z,3.30
2022-09-29T07:52:13.943Z,3.60
2022-09-29T07:54:40.747Z,3.23
2022-09-29T07:57:07.576Z,4.00
2022-09-29T07:59:34.358Z,4.03
2022-09-29T08:02:02.731Z,4.32
2022-09-29T08:04:29.666Z,4.30
2022-09-29T08:06:56.613Z,4.40
2022-09-29T08:09:35.972Z,4.10
2022-09-29T08:12:08.482Z,3.27
2022-09-29T08:14:35.521Z,3.05
2022-09-29T08:17:02.322Z,2.80
2022-09-29T08:19:29.229Z,3.55
2022-09-29T08:21:55.994Z,3.08
2022-09-29T08:24:22.759Z,2.60
2022-09-29T08:26:50.664Z,2.83
2022-09-29T08:29:17.770Z,3.03
2022-09-29T08:31:45.151Z,3.30
2022-09-29T08:34:13.909Z,2.70
2022-09-29T08:36:41.114Z,2.30
2022-09-29T08:39:09.639Z,2.60
2022-09-29T08:41:39.476Z,2.15
2022-09-29T08:44:30.730Z,1.75
2022-09-29T08:47:11.005Z,1.40
2022-09-29T08:49:43.634Z,1.30
2022-09-29T08:52:51.676Z,1.55
2022-09-29T08:55:21.915Z,1.30
2022-09-29T08:57:53.965Z,1.20
2022-09-29T09:00:20.885Z,1.15
2022-09-29T09:03:08.766Z,1.00
2022-09-29T09:05:51.292Z,1.10
2022-09-29T09:08:26.249Z,1.00
2022-09-29T09:11:16.289Z,1.70
2022-09-29T09:14:04.385Z,1.17
2022-09-29T09:16:47.030Z,1.77
2022-09-29T09:19:32.603Z,1.83
2022-09-29T09:22:08.737Z,2.10
2022-09-29T09:24:42.938Z,1.65
2022-09-29T09:27:13.919Z,1.80
2022-09-29T09:29:42.982Z,1.30
2022-09-29T09:32:29.089Z,1.30
2022-09-29T09:35:15.830Z,1.33
2022-09-29T09:37:47.746Z,0.85
2022-09-29T09:40:19.119Z,1.20
2022-09-29T09:42:49.470Z,0.95
2022-09-29T09:45:22.193Z,0.80
2022-09-29T09:47:59.887Z,0.90
2022-09-29T09:50:26.729Z,0.80
2022-09-29T09:53:13.112Z,1.13
2022-09-29T09:55:43.229Z,0.80
2022-09-29T09:58:13.474Z,1.10
2022-09-29T10:01:12.338Z,0.90
2022-09-29T10:03:39.287Z,1.10
2022-09-29T10:06:09.416Z,1.67
2022-09-29T10:08:40.018Z,1.70
2022-09-29T10:11:19.004Z,1.50
2022-09-29T10:13:45.862Z,1.30
2022-09-29T10:16:21.336Z,1.10
2022-09-29T10:18:52.598Z,1.03
2022-09-29T10:21:23.374Z,1.30
2022-09-29T10:23:54.486Z,1.27
2022-09-29T10:26:43.428Z,1.20
2022-09-29T10:29:29.003Z,1.25
2022-09-29T10:32:38.593Z,1.57
2022-09-29T10:35:15.146Z,1.80
2022-09-29T10:37:42.962Z,1.65
2022-09-29T10:40:10.734Z,1.80
2022-09-29T10:42:42.259Z,1.33
2022-09-29T10:45:26.035Z,1.67
2022-09-29T10:47:58.935Z,1.33
2022-09-29T10:50:26.567Z,1.60
2022-09-29T10:52:57.987Z,1.67
2022-09-29T10:55:32.525Z,1.27
2022-09-29T10:58:01.115Z,1.70
2022-09-29T11:00:38.921Z,1.13
2022-09-29T11:03:39.058Z,1.30
2022-09-29T11:06:14.018Z,1.30
2022-09-29T11:09:01.037Z,1.23
2022-09-29T11:11:38.140Z,1.83
2022-09-29T11:14:05.078Z,1.10
2022-09-29T11:16:33.608Z,1.23
2022-09-29T11:19:12.228Z,1.20
2022-09-29T11:22:16.788Z,1.10
2022-09-29T11:25:01.639Z,1.30
2022-09-29T11:27:33.487Z,1.08
2022-09-29T11:30:07.402Z,1.30
2022-09-29T11:32:40.214Z,1.33
2022-09-29T11:35:28.227Z,1.65
2022-09-29T11:38:08.182Z,1.60
2022-09-29T11:40:53.883Z,1.38
2022-09-29T11:43:49.288Z,0.93
2022-09-29T11:46:44.356Z,0.90
2022-09-29T11:49:56.112Z,1.48
2022-09-29T11:52:35.110Z,1.42
2022-09-29T11:55:27.901Z,1.33
2022-09-29T11:58:25.794Z,0.98
2022-09-29T12:01:23.706Z,1.02
2022-09-29T12:04:05.625Z,1.20
2022-09-29T12:06:53.691Z,1.30
2022-09-29T12:09:28.257Z,1.30
2022-09-29T12:12:22.620Z,1.27
2022-09-29T12:15:08.921Z,0.95
2022-09-29T12:17:59.907Z,1.20
2022-09-29T12:20:37.022Z,0.80
2022-09-29T12:23:05.861Z,1.10
2022-09-29T12:25:34.623Z,0.82
2022-09-29T12:28:05.071Z,0.85
2022-09-29T12:30:57.390Z,1.10
2022-09-29T12:33:34.987Z,0.90
2022-09-29T12:36:39.526Z,1.20
2022-09-29T12:39:48.096Z,0.77
2022-09-29T12:42:21.274Z,1.10
2022-09-29T12:44:54.113Z,0.80
2022-09-29T12:47:42.547Z,1.30
2022-09-29T12:50:36.717Z,1.10
2022-09-29T12:53:43.190Z,1.00
2022-09-29T12:56:14.407Z,1.02
2022-09-29T12:58:48.310Z,1.23
2022-09-29T13:01:28.428Z,1.10
2022-09-29T13:04:01.111Z,1.00
2022-09-29T13:06:52.747Z,1.80
2022-09-29T13:09:19.604Z,0.93
2022-09-29T13:11:55.396Z,0.98
2022-09-29T13:14:52.474Z,1.02
2022-09-29T13:20:34.313Z,0.90
2022-09-29T13:23:17.992Z,0.88
2022-09-29T13:26:01.226Z,1.20
2022-09-29T13:28:36.223Z,1.20
2022-09-29T13:31:06.072Z,0.70
2022-09-29T13:33:33.091Z,0.70
2022-09-29T13:35:59.985Z,0.88
2022-09-29T13:38:32.005Z,0.73
2022-09-29T13:41:12.574Z,0.77
2022-09-29T13:43:51.591Z,1.00
2022-09-29T13:46:28.283Z,0.93
2022-09-29T13:49:08.820Z,0.88
2022-09-29T13:51:52.067Z,0.60
2022-09-29T13:54:41.791Z,0.80
2022-09-29T13:57:22.441Z,0.90
2022-09-29T13:59:55.310Z,1.35
2022-09-29T14:02:33.286Z,0.80
2022-09-29T14:05:00.226Z,1.00
2022-09-29T14:07:43.757Z,0.90
2022-09-29T14:10:35.497Z,1.00
2022-09-29T14:13:02.310Z,0.82
2022-09-29T14:15:33.802Z,1.02
2022-09-29T14:18:03.379Z,0.93
2022-09-29T14:20:33.714Z,0.95
2022-09-29T14:23:07.817Z,1.13
2022-09-29T14:25:40.469Z,1.08
2022-09-29T14:28:21.831Z,1.10
2022-09-29T14:30:52.603Z,1.10
2022-09-29T14:33:36.504Z,0.90
2022-09-29T14:36:10.991Z,1.10
2022-09-29T14:38:54.068Z,1.42
2022-09-29T14:41:34.162Z,1.10
2022-09-29T14:44:19.998Z,0.77
2022-09-29T14:47:11.823Z,0.68
2022-09-29T14:50:12.108Z,0.82
2022-09-29T14:53:00.102Z,0.90
2022-09-29T14:55:35.914Z,0.65
2022-09-29T14:58:21.627Z,1.10
2022-09-29T15:01:00.844Z,0.77
2022-09-29T15:03:28.668Z,0.70
2022-09-29T15:06:25.762Z,0.77
2022-09-29T15:08:54.573Z,0.95
2022-09-29T15:11:27.820Z,0.80
2022-09-29T15:13:58.845Z,0.70
2022-09-29T15:16:39.385Z,0.90
2022-09-29T15:19:18.254Z,0.90
2022-09-29T15:22:06.887Z,0.80
2022-09-29T15:24:36.743Z,0.82
2022-09-29T15:27:06.632Z,0.75
2022-09-29T15:29:33.444Z,0.90
2022-09-29T15:32:00.366Z,1.13
2022-09-29T15:34:27.170Z,1.05
2022-09-29T15:36:55.252Z,1.02
2022-09-29T15:39:31.945Z,1.00
2022-09-29T15:42:03.465Z,1.15
2022-09-29T15:44:32.897Z,0.90
2022-09-29T15:46:59.975Z,1.13
2022-09-29T15:49:27.817Z,0.77
2022-09-29T15:51:57.020Z,0.82
2022-09-29T15:54:24.785Z,0.80
2022-09-29T15:57:10.199Z,0.80
2022-09-29T15:59:44.242Z,0.82
2022-09-29T16:02:23.780Z,1.08
2022-09-29T16:04:55.489Z,0.70
2022-09-29T16:07:34.575Z,0.70
2022-09-29T16:10:22.287Z,0.73
2022-09-29T16:12:57.419Z,0.70
2022-09-29T16:15:35.387Z,0.65
2022-09-29T16:18:11.426Z,0.70
2022-09-29T16:20:38.235Z,0.70
2022-09-29T16:23:20.308Z,1.10
2022-09-29T16:25:47.198Z,0.80
2022-09-29T16:28:26.738Z,0.65
2022-09-29T16:31:18.941Z,0.40
2022-09-29T16:33:47.030Z,0.40
2022-09-29T16:36:17.920Z,1.10
2022-09-29T16:38:48.482Z,0.40
2022-09-29T16:41:34.487Z,0.50
2022-09-29T16:44:27.083Z,0.57
2022-09-29T16:47:16.227Z,0.80
2022-09-29T16:49:50.639Z,0.70
2022-09-29T16:52:28.693Z,1.77
2022-09-29T16:55:15.415Z,0.95
2022-09-29T16:57:55.366Z,1.35
2022-09-29T17:00:22.383Z,1.27
2022-09-29T17:02:53.331Z,1.50
2022-09-29T17:05:21.916Z,0.93
2022-09-29T17:07:49.020Z,0.90
2022-09-29T17:10:20.135Z,1.48
2022-09-29T17:12:47.128Z,0.82
2022-09-29T17:15:17.820Z,1.00
2022-09-29T17:17:48.670Z,1.00
2022-09-29T17:20:20.867Z,1.25
2022-09-29T17:22:49.107Z,1.30
2022-09-29T17:25:15.930Z,1.00
2022-09-29T17:28:02.364Z,0.95
2022-09-29T17:30:29.150Z,0.80
2022-09-29T17:32:57.082Z,1.00
2022-09-29T17:35:31.518Z,0.98
2022-09-29T17:37:58.362Z,0.85
2022-09-29T17:40:34.916Z,0.93
2022-09-29T17:43:01.855Z,0.85
2022-09-29T17:45:30.009Z,1.00
2022-09-29T17:47:56.946Z,0.93
2022-09-29T17:50:36.992Z,0.80
2022-09-29T17:53:04.367Z,1.13
2022-09-29T17:55:31.356Z,0.73
2022-09-29T17:57:58.300Z,0.93
2022-09-29T18:00:31.560Z,1.00
2022-09-29T18:02:59.414Z,0.77
2022-09-29T18:05:27.727Z,0.77
2022-09-29T18:07:55.763Z,0.77
2022-09-29T18:10:29.482Z,0.90
2022-09-29T18:12:56.722Z,0.60
2022-09-29T18:15:24.010Z,0.70
2022-09-29T18:17:55.895Z,0.80
2022-09-29T18:20:23.161Z,0.90
2022-09-29T18:22:49.911Z,1.00
2022-09-29T18:25:20.057Z,0.70
2022-09-29T18:27:47.537Z,1.17
2022-09-29T18:30:19.660Z,1.25
2022-09-29T18:32:50.926Z,0.80
2022-09-29T18:35:22.818Z,0.70
2022-09-29T18:37:49.744Z,1.00
2022-09-29T18:40:17.726Z,0.70
2022-09-29T18:42:45.818Z,0.60
2022-09-29T18:45:14.650Z,0.60
2022-09-29T18:47:44.640Z,0.80
2022-09-29T18:50:25.151Z,0.63
2022-09-29T18:52:52.213Z,1.25
2022-09-29T18:55:20.575Z,0.60
2022-09-29T18:57:47.410Z,0.60
2022-09-29T19:00:16.159Z,0.60
2022-09-29T19:02:43.826Z,0.60
2022-09-29T19:05:13.230Z,0.57
2022-09-29T19:07:40.164Z,1.00
2022-09-29T19:10:07.394Z,0.77
2022-09-29T19:12:34.233Z,0.50
2022-09-29T19:15:01.349Z,0.73
2022-09-29T19:17:28.208Z,1.00
2022-09-29T19:19:55.014Z,0.77
2022-09-29T19:22:21.844Z,0.73
2022-09-29T19:24:48.656Z,0.73
2022-09-29T19:27:15.474Z,0.70
2022-09-29T19:29:42.280Z,0.73
2022-09-29T19:32:09.250Z,0.60
2022-09-29T19:34:36.063Z,0.60
2022-09-29T19:37:02.878Z,0.90
2022-09-29T19:39:31.467Z,0.60
2022-09-29T19:41:58.739Z,1.00
2022-09-29T19:44:26.122Z,1.03
2022-09-29T19:46:53.008Z,0.57
2022-09-29T19:49:19.891Z,0.80
2022-09-29T19:51:49.687Z,0.90
2022-09-29T19:54:20.338Z,1.00
2022-09-29T19:56:51.727Z,1.80
2022-09-29T19:59:39.735Z,2.80
2022-09-29T20:02:16.175Z,2.50
2022-09-29T20:04:43.195Z,2.67
2022-09-29T20:07:10.052Z,2.03
2022-09-29T20:09:36.853Z,1.60
2022-09-29T20:12:03.686Z,1.13
2022-09-29T20:14:32.221Z,0.80
2022-09-29T20:16:59.066Z,0.82
2022-09-29T20:19:27.940Z,0.60
2022-09-29T20:21:55.870Z,0.98
2022-09-29T20:24:25.281Z,1.00
2022-09-29T20:26:52.233Z,0.90
2022-09-29T20:29:20.139Z,1.23
2022-09-29T20:31:48.130Z,0.88
2022-09-29T20:34:16.873Z,0.68
2022-09-29T20:36:43.890Z,1.20
2022-09-29T20:39:11.331Z,0.82
2022-09-29T20:41:38.207Z,0.90
2022-09-29T20:44:05.027Z,0.98
2022-09-29T20:46:32.010Z,0.80
2022-09-29T20:48:59.397Z,0.98
2022-09-29T20:51:26.309Z,1.17
2022-09-29T20:53:58.586Z,1.70
2022-09-29T20:56:31.157Z,1.80
2022-09-29T20:58:59.342Z,1.85
2022-09-29T21:01:27.895Z,2.50
2022-09-29T21:03:59.511Z,2.37
2022-09-29T21:06:30.325Z,2.10
2022-09-29T21:09:00.523Z,2.90
2022-09-29T21:11:27.406Z,2.30
2022-09-29T21:13:56.873Z,3.00
2022-09-29T21:16:24.359Z,2.90
2022-09-29T21:18:53.294Z,3.00
2022-09-29T21:21:20.298Z,3.37
2022-09-29T21:23:47.127Z,3.53
2022-09-29T21:26:15.437Z,3.77
2022-09-29T21:28:53.088Z,3.20
2022-09-29T21:31:21.663Z,3.20
2022-09-29T21:33:56.950Z,3.20
2022-09-29T21:36:24.754Z,3.20
2022-09-29T21:38:52.026Z,3.23
2022-09-29T21:41:23.245Z,3.50
2022-09-29T21:43:51.786Z,4.20
2022-09-29T21:46:20.093Z,4.20
2022-09-29T21:48:53.690Z,4.10
2022-09-29T21:51:24.153Z,4.23
2022-09-29T21:53:55.078Z,4.10
2022-09-29T21:56:22.744Z,4.23
2022-09-29T21:58:50.183Z,3.73
2022-09-29T22:01:17.273Z,4.33
2022-09-29T22:03:45.474Z,3.93
2022-09-29T22:06:38.936Z,3.63
2022-09-29T22:09:07.393Z,4.20
2022-09-29T22:11:39.063Z,3.77
2022-09-29T22:14:05.857Z,4.27
2022-09-29T22:16:33.406Z,4.43
2022-09-29T22:19:21.926Z,4.53
2022-09-29T22:21:47.692Z,4.53
2022-09-29T22:24:14.466Z,3.67
2022-09-29T22:26:41.267Z,4.17
2022-09-29T22:29:08.120Z,4.40
2022-09-29T22:31:34.981Z,4.40
2022-09-29T22:34:04.261Z,5.03
2022-09-29T22:36:32.810Z,4.90
2022-09-29T22:39:00.013Z,4.77
2022-09-29T22:41:26.761Z,4.63
2022-09-29T22:43:54.556Z,5.27
2022-09-29T22:46:24.799Z,5.40
2022-09-29T22:48:51.614Z,4.50
2022-09-29T22:51:18.657Z,5.43
2022-09-29T22:53:45.457Z,5.40
2022-09-29T22:56:14.684Z,5.30
2022-09-29T22:58:44.868Z,5.00
2022-09-29T23:01:13.759Z,4.70
2022-09-29T23:03:41.489Z,5.20
2022-09-29T23:06:08.565Z,4.97
2022-09-29T23:08:35.723Z,4.97
2022-09-29T23:11:05.535Z,5.13
2022-09-29T23:13:33.389Z,5.00
2022-09-29T23:16:11.647Z,5.20
2022-09-29T23:18:44.229Z,4.80
2022-09-29T23:21:19.104Z,5.23
2022-09-29T23:23:51.339Z,5.17
2022-09-29T23:26:18.183Z,5.17
2022-09-29T23:28:44.979Z,5.43
2022-09-29T23:31:12.107Z,5.60
2022-09-29T23:33:39.113Z,4.87
2022-09-29T23:36:13.192Z,5.93
2022-09-29T23:38:58.976Z,5.23
2022-09-29T23:41:27.898Z,6.03
2022-09-29T23:43:57.728Z,5.40
2022-09-29T23:46:24.909Z,5.47
2022-09-29T23:48:51.889Z,5.40
2022-09-29T23:51:19.068Z,5.37
2022-09-29T23:53:45.901Z,5.40
2022-09-29T23:56:12.706Z,4.87
2022-09-29T23:58:39.562Z,5.60
